createdAt,value
2023-12-09T00:02:08.625Z,73.40
2023-12-09T00:07:48.779Z,67.32
2023-12-09T00:13:29.103Z,60.22
2023-12-09T00:19:11.182Z,55.95
2023-12-09T00:24:51.158Z,67.00
2023-12-09T00:30:31.571Z,61.90
2023-12-09T00:36:13.370Z,55.42
2023-12-09T00:41:53.717Z,66.97
2023-12-09T00:47:34.007Z,59.75
2023-12-09T00:53:15.487Z,64.82
2023-12-09T00:58:55.438Z,56.38
2023-12-09T01:04:35.930Z,53.50
2023-12-09T01:10:17.780Z,41.92
2023-12-09T01:15:57.709Z,50.92
2023-12-09T01:21:38.009Z,55.92
2023-12-09T01:27:19.841Z,41.92
2023-12-09T01:32:59.916Z,56.78
2023-12-09T01:38:40.020Z,56.38
2023-12-09T01:44:21.737Z,45.70
2023-12-09T01:50:02.151Z,51.38
2023-12-09T01:55:42.857Z,45.33
2023-12-09T02:01:26.362Z,40.42
2023-12-09T02:07:06.798Z,42.00
2023-12-09T02:12:53.427Z,43.67
2023-12-09T02:18:37.260Z,35.92
2023-12-09T02:24:19.256Z,47.05
2023-12-09T02:30:08.000Z,43.50
2023-12-09T02:35:51.035Z,42.25
2023-12-09T02:41:34.140Z,50.10
2023-12-09T02:47:14.638Z,44.20
2023-12-09T02:52:54.725Z,43.95
2023-12-09T02:58:36.275Z,42.05
2023-12-09T03:04:16.229Z,40.05
2023-12-09T03:09:56.326Z,48.53
2023-12-09T03:15:37.929Z,36.13
2023-12-09T03:21:18.336Z,45.33
2023-12-09T03:26:58.552Z,47.03
2023-12-09T03:32:41.185Z,39.72
2023-12-09T03:38:20.984Z,40.08
2023-12-09T03:44:01.581Z,41.10
2023-12-09T03:49:43.199Z,41.38
2023-12-09T03:55:23.523Z,43.92
2023-12-09T04:01:04.168Z,41.20
2023-12-09T04:06:46.002Z,35.95
2023-12-09T04:12:26.476Z,32.78
2023-12-09T04:18:07.323Z,35.35
2023-12-09T04:23:49.297Z,32.58
2023-12-09T04:29:29.450Z,32.90
2023-12-09T04:35:10.173Z,35.05
2023-12-09T04:40:51.541Z,34.47
2023-12-09T04:46:31.783Z,33.60
2023-12-09T04:52:12.370Z,28.55
2023-12-09T04:57:54.198Z,39.38
2023-12-09T05:03:34.283Z,31.00
2023-12-09T05:09:14.255Z,25.30
2023-12-09T05:14:56.090Z,25.85
2023-12-09T05:20:36.486Z,28.70
2023-12-09T05:26:23.543Z,34.97
2023-12-09T05:32:05.723Z,31.85
2023-12-09T05:37:45.821Z,29.38
2023-12-09T05:43:25.981Z,32.85
2023-12-09T05:49:07.738Z,32.05
2023-12-09T05:54:48.436Z,31.00
2023-12-09T06:00:28.501Z,30.42
2023-12-09T06:06:10.624Z,30.90
2023-12-09T06:11:51.224Z,31.63
2023-12-09T06:17:31.620Z,28.83
2023-12-09T06:23:13.089Z,36.25
2023-12-09T06:28:53.195Z,26.52
2023-12-09T06:34:35.976Z,29.25
2023-12-09T06:40:18.271Z,27.55
2023-12-09T06:46:00.241Z,27.95
2023-12-09T06:51:40.758Z,26.02
2023-12-09T06:57:22.514Z,26.77
2023-12-09T07:03:03.436Z,24.65
2023-12-09T07:08:43.766Z,25.63
2023-12-09T07:14:25.545Z,22.70
2023-12-09T07:20:07.436Z,23.95
2023-12-09T07:25:47.766Z,27.20
2023-12-09T07:31:29.546Z,25.92
2023-12-09T07:37:09.505Z,23.92
2023-12-09T07:42:49.785Z,33.35
2023-12-09T07:48:31.888Z,26.20
2023-12-09T07:54:12.587Z,31.42
2023-12-09T07:59:52.971Z,25.52
2023-12-09T08:05:35.467Z,26.85
2023-12-09T08:11:15.405Z,22.30
2023-12-09T08:16:55.625Z,23.00
2023-12-09T08:22:37.713Z,20.17
2023-12-09T08:28:18.066Z,28.63
2023-12-09T08:33:58.535Z,31.65
2023-12-09T08:39:42.383Z,36.90
2023-12-09T08:45:22.827Z,17.23
2023-12-09T08:51:03.139Z,17.25
2023-12-09T08:56:44.577Z,28.70
2023-12-09T09:02:24.891Z,27.25
2023-12-09T09:08:06.004Z,24.23
2023-12-09T09:13:47.654Z,21.20
2023-12-09T09:19:27.890Z,25.23
2023-12-09T09:25:09.315Z,23.73
2023-12-09T09:30:51.204Z,25.13
2023-12-09T09:36:31.501Z,21.45
2023-12-09T09:42:27.021Z,20.92
2023-12-09T09:48:16.861Z,20.25
2023-12-09T09:54:08.596Z,27.00
2023-12-09T09:59:49.080Z,25.92
2023-12-09T10:05:30.643Z,17.95
2023-12-09T10:11:11.539Z,15.95
2023-12-09T10:16:52.420Z,20.58
2023-12-09T10:22:35.785Z,12.40
2023-12-09T10:28:16.131Z,19.17
2023-12-09T10:33:57.253Z,19.30
2023-12-09T10:39:44.060Z,17.20
2023-12-09T10:45:24.163Z,19.17
2023-12-09T10:51:04.801Z,16.30
2023-12-09T10:56:47.031Z,20.52
2023-12-09T11:02:29.884Z,16.67
2023-12-09T11:08:11.851Z,16.88
2023-12-09T11:13:55.133Z,16.33
2023-12-09T11:19:35.414Z,17.55
2023-12-09T11:25:22.728Z,13.30
2023-12-09T11:31:05.758Z,16.73
2023-12-09T11:36:48.373Z,11.00
2023-12-09T11:42:30.102Z,15.48
2023-12-09T11:48:12.942Z,14.63
2023-12-09T11:53:55.085Z,12.88
2023-12-09T11:59:37.264Z,13.80
2023-12-09T12:05:19.093Z,9.77
2023-12-09T12:10:59.578Z,12.57
2023-12-09T12:16:40.240Z,8.70
2023-12-09T12:22:21.899Z,12.77
2023-12-09T12:28:01.938Z,9.13
2023-12-09T12:33:42.625Z,14.48
2023-12-09T12:39:26.849Z,10.85
2023-12-09T12:45:17.302Z,18.65
2023-12-09T12:50:57.702Z,8.38
2023-12-09T12:56:39.456Z,13.20
2023-12-09T13:02:19.639Z,10.23
2023-12-09T13:08:02.313Z,10.10
2023-12-09T13:13:44.090Z,5.70
2023-12-09T13:19:24.328Z,7.28
2023-12-09T13:25:06.601Z,11.35
2023-12-09T13:30:48.984Z,11.48
2023-12-09T13:36:29.488Z,6.07
2023-12-09T13:42:09.991Z,9.07
2023-12-09T13:47:51.654Z,7.22
2023-12-09T13:53:32.183Z,10.65
2023-12-09T13:59:12.561Z,9.93
2023-12-09T14:04:54.501Z,8.25
2023-12-09T14:10:34.773Z,9.07
2023-12-09T14:16:15.249Z,9.98
2023-12-09T14:21:57.289Z,11.18
2023-12-09T14:27:37.706Z,13.32
2023-12-09T14:33:18.215Z,7.97
2023-12-09T14:39:00.414Z,10.70
2023-12-09T14:44:40.782Z,9.52
2023-12-09T14:50:21.119Z,8.57
2023-12-09T14:56:03.251Z,16.52
2023-12-09T15:01:43.476Z,8.95
2023-12-09T15:07:23.474Z,11.13
2023-12-09T15:13:05.369Z,7.80
2023-12-09T15:18:45.857Z,9.77
2023-12-09T15:24:27.090Z,9.65
2023-12-09T15:30:10.326Z,8.02
2023-12-09T15:35:50.526Z,9.88
2023-12-09T15:41:31.402Z,11.60
2023-12-09T15:47:13.008Z,10.95
2023-12-09T15:52:53.034Z,10.30
2023-12-09T15:58:33.841Z,8.13
2023-12-09T16:04:15.953Z,6.72
2023-12-09T16:09:58.329Z,10.73
2023-12-09T16:15:38.730Z,9.75
2023-12-09T16:21:20.227Z,11.52
2023-12-09T16:27:00.573Z,7.90
2023-12-09T16:32:41.419Z,11.57
2023-12-09T16:38:23.083Z,7.57
2023-12-09T16:44:03.021Z,10.48
2023-12-09T16:49:43.356Z,9.23
2023-12-09T16:55:24.955Z,13.80
2023-12-09T17:01:05.367Z,14.70
2023-12-09T17:06:46.050Z,11.38
2023-12-09T17:12:28.109Z,11.75
2023-12-09T17:18:09.556Z,7.78
2023-12-09T17:23:49.978Z,10.05
2023-12-09T17:29:31.744Z,11.60
2023-12-09T17:35:11.610Z,9.82
2023-12-09T17:40:52.142Z,14.02
2023-12-09T17:46:33.870Z,10.45
2023-12-09T17:52:13.946Z,12.43
2023-12-09T17:57:54.252Z,11.73
2023-12-09T18:03:36.054Z,12.57
2023-12-09T18:09:16.546Z,9.75
2023-12-09T18:14:57.149Z,10.10
2023-12-09T18:20:38.747Z,12.82
2023-12-09T18:26:19.005Z,15.27
2023-12-09T18:31:59.167Z,13.55
2023-12-09T18:37:41.304Z,13.95
2023-12-09T18:43:21.731Z,12.40
2023-12-09T18:49:02.232Z,11.38
2023-12-09T18:54:43.780Z,10.93
2023-12-09T19:00:23.846Z,9.23
2023-12-09T19:06:04.977Z,8.85
2023-12-09T19:11:48.356Z,9.30
2023-12-09T19:17:30.466Z,10.00
2023-12-09T19:23:16.197Z,8.98
2023-12-09T19:29:03.060Z,9.77
2023-12-09T19:34:43.317Z,11.48
2023-12-09T19:40:23.503Z,5.78
2023-12-09T19:46:07.110Z,6.63
2023-12-09T19:51:47.105Z,5.03
2023-12-09T19:57:27.392Z,9.38
2023-12-09T20:03:09.518Z,9.40
2023-12-09T20:08:49.681Z,6.60
2023-12-09T20:14:29.968Z,7.97
2023-12-09T20:20:12.623Z,6.97
2023-12-09T20:25:52.458Z,6.75
2023-12-09T20:31:32.923Z,8.25
2023-12-09T20:37:14.954Z,5.75
2023-12-09T20:42:55.149Z,6.15
2023-12-09T20:48:35.328Z,5.25
2023-12-09T20:54:17.132Z,6.40
2023-12-09T20:59:57.393Z,7.25
2023-12-09T21:05:47.608Z,4.38
2023-12-09T21:11:48.568Z,5.55
2023-12-09T21:17:30.255Z,4.15
2023-12-09T21:23:10.462Z,5.30
2023-12-09T21:28:52.218Z,4.50
2023-12-09T21:34:32.350Z,4.03
2023-12-09T21:40:13.261Z,4.13
2023-12-09T21:45:54.755Z,4.07
2023-12-09T21:51:40.613Z,4.25
2023-12-09T21:57:21.030Z,7.05
2023-12-09T22:03:02.673Z,4.32
2023-12-09T22:08:44.409Z,4.60
2023-12-09T22:14:24.650Z,7.68
2023-12-09T22:20:08.181Z,7.78
2023-12-09T22:25:50.683Z,6.47
2023-12-09T22:31:30.762Z,9.80
2023-12-09T22:37:12.606Z,14.13
2023-12-09T22:42:52.912Z,11.68
2023-12-09T22:48:32.996Z,14.02
2023-12-09T22:54:14.884Z,12.27
2023-12-09T22:59:55.063Z,19.77
2023-12-09T23:05:36.939Z,12.52
2023-12-09T23:11:18.722Z,18.35
2023-12-09T23:16:59.048Z,16.70
2023-12-09T23:22:39.429Z,15.65
2023-12-09T23:28:21.086Z,18.52
2023-12-09T23:34:01.463Z,26.05
2023-12-09T23:39:41.914Z,22.48
2023-12-09T23:45:23.728Z,32.40
2023-12-09T23:51:03.957Z,26.98
2023-12-09T23:56:44.297Z,31.58
